sensor_id;sensor_type;location;lat;lon;timestamp;temperature;humidity
11005;DHT22;5555;59.622;16.556;2022-12-18T00:02:16;1.20;99.90
11005;DHT22;5555;59.622;16.556;2022-12-18T00:04:42;1.20;99.90
11005;DHT22;5555;59.622;16.556;2022-12-18T00:07:08;1.20;99.90
11005;DHT22;5555;59.622;16.556;2022-12-18T00:09:34;1.20;99.90
11005;DHT22;5555;59.622;16.556;2022-12-18T00:11:59;1.20;99.90
11005;DHT22;5555;59.622;16.556;2022-12-18T00:14:25;1.20;99.90
11005;DHT22;5555;59.622;16.556;2022-12-18T00:16:50;1.20;99.90
11005;DHT22;5555;59.622;16.556;2022-12-18T00:19:16;1.20;99.90
11005;DHT22;5555;59.622;16.556;2022-12-18T00:21:43;1.20;99.90
11005;DHT22;5555;59.622;16.556;2022-12-18T00:24:10;1.20;99.90
11005;DHT22;5555;59.622;16.556;2022-12-18T00:26:37;1.20;99.90
11005;DHT22;5555;59.622;16.556;2022-12-18T00:29:12;1.20;99.90
11005;DHT22;5555;59.622;16.556;2022-12-18T00:31:39;1.20;99.90
11005;DHT22;5555;59.622;16.556;2022-12-18T00:34:05;1.20;99.90
11005;DHT22;5555;59.622;16.556;2022-12-18T00:36:33;1.20;99.90
11005;DHT22;5555;59.622;16.556;2022-12-18T00:39:01;1.20;99.90
11005;DHT22;5555;59.622;16.556;2022-12-18T00:41:28;1.20;99.90
11005;DHT22;5555;59.622;16.556;2022-12-18T00:44:14;1.20;99.90
11005;DHT22;5555;59.622;16.556;2022-12-18T00:46:41;1.20;99.90
11005;DHT22;5555;59.622;16.556;2022-12-18T00:49:07;1.20;99.90
11005;DHT22;5555;59.622;16.556;2022-12-18T00:51:32;1.20;99.90
11005;DHT22;5555;59.622;16.556;2022-12-18T00:53:58;1.20;99.90
11005;DHT22;5555;59.622;16.556;2022-12-18T00:56:24;1.30;99.90
11005;DHT22;5555;59.622;16.556;2022-12-18T00:58:50;1.20;99.90
11005;DHT22;5555;59.622;16.556;2022-12-18T01:01:16;1.20;99.90
11005;DHT22;5555;59.622;16.556;2022-12-18T01:03:42;1.30;99.90
11005;DHT22;5555;59.622;16.556;2022-12-18T01:06:10;1.20;99.90
11005;DHT22;5555;59.622;16.556;2022-12-18T01:08:37;1.30;99.90
11005;DHT22;5555;59.622;16.556;2022-12-18T01:11:11;1.30;99.90
11005;DHT22;5555;59.622;16.556;2022-12-18T01:13:38;1.20;99.90
11005;DHT22;5555;59.622;16.556;2022-12-18T01:16:04;1.20;99.90
11005;DHT22;5555;59.622;16.556;2022-12-18T01:18:30;1.20;99.90
11005;DHT22;5555;59.622;16.556;2022-12-18T01:20:56;1.30;99.90
11005;DHT22;5555;59.622;16.556;2022-12-18T01:23:21;1.30;99.90
11005;DHT22;5555;59.622;16.556;2022-12-18T01:25:48;1.30;99.90
11005;DHT22;5555;59.622;16.556;2022-12-18T01:28:14;1.30;99.90
11005;DHT22;5555;59.622;16.556;2022-12-18T01:30:39;1.20;99.90
11005;DHT22;5555;59.622;16.556;2022-12-18T01:33:05;1.30;99.90
11005;DHT22;5555;59.622;16.556;2022-12-18T01:35:31;1.30;99.90
11005;DHT22;5555;59.622;16.556;2022-12-18T01:37:57;1.30;99.90
11005;DHT22;5555;59.622;16.556;2022-12-18T01:40:23;1.20;99.90
11005;DHT22;5555;59.622;16.556;2022-12-18T01:42:52;1.20;99.90
11005;DHT22;5555;59.622;16.556;2022-12-18T01:47:53;1.20;99.90
11005;DHT22;5555;59.622;16.556;2022-12-18T01:50:36;1.30;99.90
11005;DHT22;5555;59.622;16.556;2022-12-18T01:53:21;1.20;99.90
11005;DHT22;5555;59.622;16.556;2022-12-18T01:55:51;1.20;99.90
11005;DHT22;5555;59.622;16.556;2022-12-18T01:58:18;1.20;99.90
11005;DHT22;5555;59.622;16.556;2022-12-18T02:00:44;1.20;99.90
11005;DHT22;5555;59.622;16.556;2022-12-18T02:03:10;1.20;99.90
11005;DHT22;5555;59.622;16.556;2022-12-18T02:06:13;1.20;99.90
11005;DHT22;5555;59.622;16.556;2022-12-18T02:11:55;1.20;99.90
11005;DHT22;5555;59.622;16.556;2022-12-18T02:17:07;1.20;99.90
11005;DHT22;5555;59.622;16.556;2022-12-18T02:19:43;1.20;99.90
11005;DHT22;5555;59.622;16.556;2022-12-18T02:22:54;1.20;99.90
11005;DHT22;5555;59.622;16.556;2022-12-18T02:28:21;1.20;99.90
11005;DHT22;5555;59.622;16.556;2022-12-18T02:30:50;1.20;99.90
11005;DHT22;5555;59.622;16.556;2022-12-18T02:33:19;1.20;99.90
11005;DHT22;5555;59.622;16.556;2022-12-18T02:35:47;1.20;99.90
11005;DHT22;5555;59.622;16.556;2022-12-18T02:38:14;1.20;99.90
11005;DHT22;5555;59.622;16.556;2022-12-18T02:40:42;1.20;99.90
11005;DHT22;5555;59.622;16.556;2022-12-18T02:43:11;1.10;99.90
11005;DHT22;5555;59.622;16.556;2022-12-18T02:45:52;1.20;99.90
11005;DHT22;5555;59.622;16.556;2022-12-18T02:48:31;1.20;99.90
11005;DHT22;5555;59.622;16.556;2022-12-18T02:51:13;1.20;99.90
11005;DHT22;5555;59.622;16.556;2022-12-18T02:53:56;1.10;99.90
11005;DHT22;5555;59.622;16.556;2022-12-18T02:56:42;1.10;99.90
11005;DHT22;5555;59.622;16.556;2022-12-18T02:59:23;1.20;99.90
11005;DHT22;5555;59.622;16.556;2022-12-18T03:02:17;1.20;99.90
11005;DHT22;5555;59.622;16.556;2022-12-18T03:05:12;1.20;99.90
11005;DHT22;5555;59.622;16.556;2022-12-18T03:08:01;1.20;99.90
11005;DHT22;5555;59.622;16.556;2022-12-18T03:10:32;1.20;99.90
11005;DHT22;5555;59.622;16.556;2022-12-18T03:13:09;1.20;99.90
11005;DHT22;5555;59.622;16.556;2022-12-18T03:15:42;1.10;99.90
11005;DHT22;5555;59.622;16.556;2022-12-18T03:18:30;1.10;99.90
11005;DHT22;5555;59.622;16.556;2022-12-18T03:21:02;1.10;99.90
11005;DHT22;5555;59.622;16.556;2022-12-18T03:23:34;1.10;99.90
11005;DHT22;5555;59.622;16.556;2022-12-18T03:26:05;1.20;99.90
11005;DHT22;5555;59.622;16.556;2022-12-18T03:28:35;1.20;99.90
11005;DHT22;5555;59.622;16.556;2022-12-18T03:31:03;1.20;99.90
11005;DHT22;5555;59.622;16.556;2022-12-18T03:33:54;1.20;99.90
11005;DHT22;5555;59.622;16.556;2022-12-18T03:36:20;1.20;99.90
11005;DHT22;5555;59.622;16.556;2022-12-18T03:38:47;1.10;99.90
11005;DHT22;5555;59.622;16.556;2022-12-18T03:41:18;1.10;99.90
11005;DHT22;5555;59.622;16.556;2022-12-18T03:47:17;1.10;99.90
11005;DHT22;5555;59.622;16.556;2022-12-18T03:52:26;1.10;99.90
11005;DHT22;5555;59.622;16.556;2022-12-18T03:54:55;1.10;99.90
11005;DHT22;5555;59.622;16.556;2022-12-18T03:57:23;1.10;99.90
11005;DHT22;5555;59.622;16.556;2022-12-18T03:59:55;1.10;99.90
11005;DHT22;5555;59.622;16.556;2022-12-18T04:02:22;1.10;99.90
11005;DHT22;5555;59.622;16.556;2022-12-18T04:04:52;1.10;99.90
11005;DHT22;5555;59.622;16.556;2022-12-18T04:07:19;1.10;99.90
11005;DHT22;5555;59.622;16.556;2022-12-18T04:09:46;1.10;99.90
11005;DHT22;5555;59.622;16.556;2022-12-18T04:12:13;1.10;99.90
11005;DHT22;5555;59.622;16.556;2022-12-18T04:14:39;1.10;99.90
11005;DHT22;5555;59.622;16.556;2022-12-18T04:17:04;1.10;99.90
11005;DHT22;5555;59.622;16.556;2022-12-18T04:19:30;1.00;99.90
11005;DHT22;5555;59.622;16.556;2022-12-18T04:21:56;1.00;99.90
11005;DHT22;5555;59.622;16.556;2022-12-18T04:24:21;1.00;99.90
11005;DHT22;5555;59.622;16.556;2022-12-18T04:26:47;1.00;99.90
11005;DHT22;5555;59.622;16.556;2022-12-18T04:29:13;1.00;99.90
11005;DHT22;5555;59.622;16.556;2022-12-18T04:31:38;1.00;99.90
11005;DHT22;5555;59.622;16.556;2022-12-18T04:34:04;1.00;99.90
11005;DHT22;5555;59.622;16.556;2022-12-18T04:36:29;1.00;99.90
11005;DHT22;5555;59.622;16.556;2022-12-18T04:38:55;1.00;99.90
11005;DHT22;5555;59.622;16.556;2022-12-18T04:41:21;1.00;99.90
11005;DHT22;5555;59.622;16.556;2022-12-18T04:43:47;0.90;99.90
11005;DHT22;5555;59.622;16.556;2022-12-18T04:46:13;0.90;99.90
11005;DHT22;5555;59.622;16.556;2022-12-18T04:48:38;0.90;99.90
11005;DHT22;5555;59.622;16.556;2022-12-18T04:51:05;0.90;99.90
11005;DHT22;5555;59.622;16.556;2022-12-18T04:53:31;0.90;99.90
11005;DHT22;5555;59.622;16.556;2022-12-18T04:56:09;0.90;99.90
11005;DHT22;5555;59.622;16.556;2022-12-18T04:58:36;0.90;99.90
11005;DHT22;5555;59.622;16.556;2022-12-18T05:01:02;0.90;99.90
11005;DHT22;5555;59.622;16.556;2022-12-18T05:03:28;0.90;99.90
11005;DHT22;5555;59.622;16.556;2022-12-18T05:05:53;0.90;99.90
11005;DHT22;5555;59.622;16.556;2022-12-18T05:08:19;0.90;99.90
11005;DHT22;5555;59.622;16.556;2022-12-18T05:10:44;0.80;99.90
11005;DHT22;5555;59.622;16.556;2022-12-18T05:13:10;0.90;99.90
11005;DHT22;5555;59.622;16.556;2022-12-18T05:15:36;0.90;99.90
11005;DHT22;5555;59.622;16.556;2022-12-18T05:18:02;0.90;99.90
11005;DHT22;5555;59.622;16.556;2022-12-18T05:20:28;0.90;99.90
11005;DHT22;5555;59.622;16.556;2022-12-18T05:22:54;0.90;99.90
11005;DHT22;5555;59.622;16.556;2022-12-18T05:25:20;0.90;99.90
11005;DHT22;5555;59.622;16.556;2022-12-18T05:27:46;0.90;99.90
11005;DHT22;5555;59.622;16.556;2022-12-18T05:30:12;0.90;99.90
11005;DHT22;5555;59.622;16.556;2022-12-18T05:32:38;0.90;99.90
11005;DHT22;5555;59.622;16.556;2022-12-18T05:35:05;0.90;99.90
11005;DHT22;5555;59.622;16.556;2022-12-18T05:37:31;0.90;99.90
11005;DHT22;5555;59.622;16.556;2022-12-18T05:39:56;0.90;99.90
11005;DHT22;5555;59.622;16.556;2022-12-18T05:42:22;0.90;99.90
11005;DHT22;5555;59.622;16.556;2022-12-18T05:44:48;0.90;99.90
11005;DHT22;5555;59.622;16.556;2022-12-18T05:47:13;0.90;99.90
11005;DHT22;5555;59.622;16.556;2022-12-18T05:49:39;0.80;99.90
11005;DHT22;5555;59.622;16.556;2022-12-18T05:52:05;0.90;99.90
11005;DHT22;5555;59.622;16.556;2022-12-18T05:54:30;0.80;99.90
11005;DHT22;5555;59.622;16.556;2022-12-18T05:56:57;0.90;99.90
11005;DHT22;5555;59.622;16.556;2022-12-18T05:59:22;0.90;99.90
11005;DHT22;5555;59.622;16.556;2022-12-18T06:01:48;0.90;99.90
11005;DHT22;5555;59.622;16.556;2022-12-18T06:04:14;0.90;99.90
11005;DHT22;5555;59.622;16.556;2022-12-18T06:06:39;1.00;99.90
11005;DHT22;5555;59.622;16.556;2022-12-18T06:09:05;1.00;99.90
11005;DHT22;5555;59.622;16.556;2022-12-18T06:11:36;1.00;99.90
11005;DHT22;5555;59.622;16.556;2022-12-18T06:14:03;1.00;99.90
11005;DHT22;5555;59.622;16.556;2022-12-18T06:16:29;1.00;99.90
11005;DHT22;5555;59.622;16.556;2022-12-18T06:18:59;1.00;99.90
11005;DHT22;5555;59.622;16.556;2022-12-18T06:21:25;1.00;99.90
11005;DHT22;5555;59.622;16.556;2022-12-18T06:23:51;1.00;99.90
11005;DHT22;5555;59.622;16.556;2022-12-18T06:26:17;1.00;99.90
11005;DHT22;5555;59.622;16.556;2022-12-18T06:28:42;1.00;99.90
11005;DHT22;5555;59.622;16.556;2022-12-18T06:31:09;1.10;99.90
11005;DHT22;5555;59.622;16.556;2022-12-18T06:33:35;1.00;99.90
11005;DHT22;5555;59.622;16.556;2022-12-18T06:36:04;1.10;99.90
11005;DHT22;5555;59.622;16.556;2022-12-18T06:38:32;1.10;99.90
11005;DHT22;5555;59.622;16.556;2022-12-18T06:40:58;1.10;99.90
11005;DHT22;5555;59.622;16.556;2022-12-18T06:43:23;1.10;99.90
11005;DHT22;5555;59.622;16.556;2022-12-18T06:45:49;1.10;99.90
11005;DHT22;5555;59.622;16.556;2022-12-18T06:48:21;1.00;99.90
11005;DHT22;5555;59.622;16.556;2022-12-18T06:50:47;1.10;99.90
11005;DHT22;5555;59.622;16.556;2022-12-18T06:53:13;1.10;99.90
11005;DHT22;5555;59.622;16.556;2022-12-18T06:55:39;1.10;99.90
11005;DHT22;5555;59.622;16.556;2022-12-18T06:58:04;1.10;99.90
11005;DHT22;5555;59.622;16.556;2022-12-18T07:00:30;1.10;99.90
11005;DHT22;5555;59.622;16.556;2022-12-18T07:02:55;1.00;99.90
11005;DHT22;5555;59.622;16.556;2022-12-18T07:05:21;1.10;99.90
11005;DHT22;5555;59.622;16.556;2022-12-18T07:07:47;1.10;99.90
11005;DHT22;5555;59.622;16.556;2022-12-18T07:10:12;1.10;99.90
11005;DHT22;5555;59.622;16.556;2022-12-18T07:12:38;1.20;99.90
11005;DHT22;5555;59.622;16.556;2022-12-18T07:15:04;1.20;99.90
11005;DHT22;5555;59.622;16.556;2022-12-18T07:17:29;1.20;99.90
11005;DHT22;5555;59.622;16.556;2022-12-18T07:19:55;1.20;99.90
11005;DHT22;5555;59.622;16.556;2022-12-18T07:22:21;1.20;99.90
11005;DHT22;5555;59.622;16.556;2022-12-18T07:24:50;1.20;99.90
11005;DHT22;5555;59.622;16.556;2022-12-18T07:27:15;1.20;99.90
11005;DHT22;5555;59.622;16.556;2022-12-18T07:29:41;1.30;99.90
11005;DHT22;5555;59.622;16.556;2022-12-18T07:32:06;1.30;99.90
11005;DHT22;5555;59.622;16.556;2022-12-18T07:34:32;1.30;99.90
11005;DHT22;5555;59.622;16.556;2022-12-18T07:36:58;1.30;99.90
11005;DHT22;5555;59.622;16.556;2022-12-18T07:39:24;1.30;99.90
11005;DHT22;5555;59.622;16.556;2022-12-18T07:41:49;1.30;99.90
11005;DHT22;5555;59.622;16.556;2022-12-18T07:44:35;1.30;99.90
11005;DHT22;5555;59.622;16.556;2022-12-18T07:47:01;1.30;99.90
11005;DHT22;5555;59.622;16.556;2022-12-18T07:49:27;1.40;99.90
11005;DHT22;5555;59.622;16.556;2022-12-18T07:51:55;1.40;99.90
11005;DHT22;5555;59.622;16.556;2022-12-18T07:54:22;1.40;99.90
11005;DHT22;5555;59.622;16.556;2022-12-18T07:56:47;1.40;99.90
11005;DHT22;5555;59.622;16.556;2022-12-18T07:59:13;1.40;99.90
11005;DHT22;5555;59.622;16.556;2022-12-18T08:01:38;1.40;99.90
11005;DHT22;5555;59.622;16.556;2022-12-18T08:04:04;1.40;99.90
11005;DHT22;5555;59.622;16.556;2022-12-18T08:06:30;1.50;99.90
11005;DHT22;5555;59.622;16.556;2022-12-18T08:08:56;1.50;99.90
11005;DHT22;5555;59.622;16.556;2022-12-18T08:11:24;1.50;99.90
11005;DHT22;5555;59.622;16.556;2022-12-18T08:13:50;1.50;99.90
11005;DHT22;5555;59.622;16.556;2022-12-18T08:16:15;1.60;99.90
11005;DHT22;5555;59.622;16.556;2022-12-18T08:18:41;1.60;99.90
11005;DHT22;5555;59.622;16.556;2022-12-18T08:21:15;1.70;99.90
11005;DHT22;5555;59.622;16.556;2022-12-18T08:23:41;1.70;99.90
11005;DHT22;5555;59.622;16.556;2022-12-18T08:26:07;1.70;99.90
11005;DHT22;5555;59.622;16.556;2022-12-18T08:28:33;1.80;99.90
11005;DHT22;5555;59.622;16.556;2022-12-18T08:30:59;1.80;99.90
11005;DHT22;5555;59.622;16.556;2022-12-18T08:33:25;1.80;99.90
11005;DHT22;5555;59.622;16.556;2022-12-18T08:35:51;1.80;99.90
11005;DHT22;5555;59.622;16.556;2022-12-18T08:38:17;1.80;99.90
11005;DHT22;5555;59.622;16.556;2022-12-18T08:40:43;1.80;99.90
11005;DHT22;5555;59.622;16.556;2022-12-18T08:43:11;1.80;99.90
11005;DHT22;5555;59.622;16.556;2022-12-18T08:45:56;1.80;99.90
11005;DHT22;5555;59.622;16.556;2022-12-18T08:48:21;1.80;99.90
11005;DHT22;5555;59.622;16.556;2022-12-18T08:50:57;1.80;99.90
11005;DHT22;5555;59.622;16.556;2022-12-18T08:53:25;1.80;99.90
11005;DHT22;5555;59.622;16.556;2022-12-18T08:55:50;1.80;99.90
11005;DHT22;5555;59.622;16.556;2022-12-18T08:58:16;1.80;99.90
11005;DHT22;5555;59.622;16.556;2022-12-18T09:00:42;1.90;99.90
11005;DHT22;5555;59.622;16.556;2022-12-18T09:03:16;1.90;99.90
11005;DHT22;5555;59.622;16.556;2022-12-18T09:05:43;1.90;99.90
11005;DHT22;5555;59.622;16.556;2022-12-18T09:08:10;1.90;99.90
11005;DHT22;5555;59.622;16.556;2022-12-18T09:10:46;1.90;99.90
11005;DHT22;5555;59.622;16.556;2022-12-18T09:13:12;2.00;99.90
11005;DHT22;5555;59.622;16.556;2022-12-18T09:15:43;2.00;99.90
11005;DHT22;5555;59.622;16.556;2022-12-18T09:18:09;2.00;99.90
11005;DHT22;5555;59.622;16.556;2022-12-18T09:20:35;2.00;99.90
11005;DHT22;5555;59.622;16.556;2022-12-18T09:23:01;2.00;99.90
11005;DHT22;5555;59.622;16.556;2022-12-18T09:25:29;2.00;99.90
11005;DHT22;5555;59.622;16.556;2022-12-18T09:27:59;2.10;99.90
11005;DHT22;5555;59.622;16.556;2022-12-18T09:30:25;2.10;99.90
11005;DHT22;5555;59.622;16.556;2022-12-18T09:32:51;2.10;99.90
11005;DHT22;5555;59.622;16.556;2022-12-18T09:35:19;2.10;99.90
11005;DHT22;5555;59.622;16.556;2022-12-18T09:37:45;2.10;99.90
11005;DHT22;5555;59.622;16.556;2022-12-18T09:40:20;2.10;99.90
11005;DHT22;5555;59.622;16.556;2022-12-18T09:42:53;2.10;99.90
11005;DHT22;5555;59.622;16.556;2022-12-18T09:45:20;2.20;99.90
11005;DHT22;5555;59.622;16.556;2022-12-18T09:47:47;2.10;99.90
11005;DHT22;5555;59.622;16.556;2022-12-18T09:50:33;2.10;99.90
11005;DHT22;5555;59.622;16.556;2022-12-18T09:53:11;2.20;99.90
11005;DHT22;5555;59.622;16.556;2022-12-18T09:55:41;2.20;99.90
11005;DHT22;5555;59.622;16.556;2022-12-18T09:58:24;2.20;99.90
11005;DHT22;5555;59.622;16.556;2022-12-18T10:00:53;2.20;99.90
11005;DHT22;5555;59.622;16.556;2022-12-18T10:03:19;2.20;99.90
11005;DHT22;5555;59.622;16.556;2022-12-18T10:14:01;2.50;99.90
11005;DHT22;5555;59.622;16.556;2022-12-18T10:16:56;2.50;99.90
11005;DHT22;5555;59.622;16.556;2022-12-18T10:19:39;2.50;99.90
11005;DHT22;5555;59.622;16.556;2022-12-18T10:25:30;2.60;99.90
11005;DHT22;5555;59.622;16.556;2022-12-18T10:28:00;2.60;99.90
11005;DHT22;5555;59.622;16.556;2022-12-18T10:30:30;2.70;99.90
11005;DHT22;5555;59.622;16.556;2022-12-18T10:33:01;2.70;99.90
11005;DHT22;5555;59.622;16.556;2022-12-18T10:35:27;2.70;99.90
11005;DHT22;5555;59.622;16.556;2022-12-18T10:38:00;2.80;99.90
11005;DHT22;5555;59.622;16.556;2022-12-18T10:40:26;2.80;99.90
11005;DHT22;5555;59.622;16.556;2022-12-18T10:43:12;2.90;99.90
11005;DHT22;5555;59.622;16.556;2022-12-18T10:45:40;3.00;99.90
11005;DHT22;5555;59.622;16.556;2022-12-18T10:48:18;3.00;99.90
11005;DHT22;5555;59.622;16.556;2022-12-18T10:50:47;3.00;99.90
11005;DHT22;5555;59.622;16.556;2022-12-18T10:53:22;3.10;99.90
11005;DHT22;5555;59.622;16.556;2022-12-18T10:55:48;3.20;99.90
11005;DHT22;5555;59.622;16.556;2022-12-18T10:58:30;3.20;99.90
11005;DHT22;5555;59.622;16.556;2022-12-18T11:03:41;3.20;99.90
11005;DHT22;5555;59.622;16.556;2022-12-18T11:06:10;3.20;99.90
11005;DHT22;5555;59.622;16.556;2022-12-18T11:08:36;3.20;99.90
11005;DHT22;5555;59.622;16.556;2022-12-18T11:11:02;3.20;99.90
11005;DHT22;5555;59.622;16.556;2022-12-18T11:13:30;3.20;99.90
11005;DHT22;5555;59.622;16.556;2022-12-18T11:15:57;3.20;99.90
11005;DHT22;5555;59.622;16.556;2022-12-18T11:21:11;3.30;99.90
11005;DHT22;5555;59.622;16.556;2022-12-18T11:23:54;3.40;99.90
11005;DHT22;5555;59.622;16.556;2022-12-18T11:26:20;3.40;99.90
11005;DHT22;5555;59.622;16.556;2022-12-18T11:29:17;3.40;99.90
11005;DHT22;5555;59.622;16.556;2022-12-18T11:31:43;3.40;99.90
11005;DHT22;5555;59.622;16.556;2022-12-18T11:34:30;3.40;99.90
11005;DHT22;5555;59.622;16.556;2022-12-18T11:36:59;3.30;99.90
11005;DHT22;5555;59.622;16.556;2022-12-18T11:39:36;3.30;99.90
11005;DHT22;5555;59.622;16.556;2022-12-18T11:47:39;3.30;99.90
11005;DHT22;5555;59.622;16.556;2022-12-18T11:50:14;3.30;99.90
11005;DHT22;5555;59.622;16.556;2022-12-18T11:52:41;3.40;99.90
11005;DHT22;5555;59.622;16.556;2022-12-18T11:55:13;3.40;99.90
11005;DHT22;5555;59.622;16.556;2022-12-18T11:58:07;3.40;99.90
11005;DHT22;5555;59.622;16.556;2022-12-18T12:00:45;3.40;99.90
11005;DHT22;5555;59.622;16.556;2022-12-18T12:05:57;3.40;99.90
11005;DHT22;5555;59.622;16.556;2022-12-18T12:14:15;3.50;99.90
11005;DHT22;5555;59.622;16.556;2022-12-18T12:22:07;3.50;99.90
11005;DHT22;5555;59.622;16.556;2022-12-18T12:24:49;3.60;99.90
11005;DHT22;5555;59.622;16.556;2022-12-18T12:27:26;3.60;99.90
11005;DHT22;5555;59.622;16.556;2022-12-18T12:30:03;3.60;99.90
11005;DHT22;5555;59.622;16.556;2022-12-18T12:35:29;3.80;99.90
11005;DHT22;5555;59.622;16.556;2022-12-18T12:38:08;3.70;99.90
11005;DHT22;5555;59.622;16.556;2022-12-18T12:40:38;3.80;99.90
11005;DHT22;5555;59.622;16.556;2022-12-18T12:43:28;3.80;99.90
11005;DHT22;5555;59.622;16.556;2022-12-18T12:51:17;3.70;99.90
11005;DHT22;5555;59.622;16.556;2022-12-18T12:53:44;3.70;99.90
11005;DHT22;5555;59.622;16.556;2022-12-18T12:56:14;3.60;99.90
11005;DHT22;5555;59.622;16.556;2022-12-18T13:06:48;3.60;99.90
11005;DHT22;5555;59.622;16.556;2022-12-18T13:09:15;3.70;99.90
11005;DHT22;5555;59.622;16.556;2022-12-18T13:11:43;3.70;99.90
11005;DHT22;5555;59.622;16.556;2022-12-18T13:19:40;3.60;99.90
11005;DHT22;5555;59.622;16.556;2022-12-18T13:22:24;3.50;99.90
11005;DHT22;5555;59.622;16.556;2022-12-18T13:24:50;3.50;99.90
11005;DHT22;5555;59.622;16.556;2022-12-18T13:35:40;3.40;99.90
11005;DHT22;5555;59.622;16.556;2022-12-18T13:38:23;3.30;99.90
11005;DHT22;5555;59.622;16.556;2022-12-18T13:43:44;3.30;99.90
11005;DHT22;5555;59.622;16.556;2022-12-18T13:49:03;3.20;99.90
11005;DHT22;5555;59.622;16.556;2022-12-18T13:51:33;3.20;99.90
11005;DHT22;5555;59.622;16.556;2022-12-18T13:54:47;3.10;99.90
11005;DHT22;5555;59.622;16.556;2022-12-18T13:56:47;3.00;99.90
11005;DHT22;5555;59.622;16.556;2022-12-18T13:59:34;3.10;99.90
11005;DHT22;5555;59.622;16.556;2022-12-18T14:02:12;3.10;99.90
11005;DHT22;5555;59.622;16.556;2022-12-18T14:04:38;3.20;99.90
11005;DHT22;5555;59.622;16.556;2022-12-18T14:07:12;3.10;99.90
11005;DHT22;5555;59.622;16.556;2022-12-18T14:09:58;3.10;99.90
11005;DHT22;5555;59.622;16.556;2022-12-18T14:12:28;3.20;99.90
11005;DHT22;5555;59.622;16.556;2022-12-18T14:18:02;3.00;99.90
11005;DHT22;5555;59.622;16.556;2022-12-18T14:20:31;3.20;99.90
11005;DHT22;5555;59.622;16.556;2022-12-18T14:22:58;3.10;99.90
11005;DHT22;5555;59.622;16.556;2022-12-18T14:25:27;3.00;99.90
11005;DHT22;5555;59.622;16.556;2022-12-18T14:30:41;3.10;99.90
11005;DHT22;5555;59.622;16.556;2022-12-18T14:35:58;3.10;99.90
11005;DHT22;5555;59.622;16.556;2022-12-18T14:38:32;3.20;99.90
11005;DHT22;5555;59.622;16.556;2022-12-18T14:41:19;3.10;99.90
11005;DHT22;5555;59.622;16.556;2022-12-18T14:43:48;3.10;99.90
11005;DHT22;5555;59.622;16.556;2022-12-18T14:49:43;3.10;99.90
11005;DHT22;5555;59.622;16.556;2022-12-18T14:51:59;3.00;99.90
11005;DHT22;5555;59.622;16.556;2022-12-18T14:54:26;3.00;99.90
11005;DHT22;5555;59.622;16.556;2022-12-18T14:57:02;3.10;99.90
11005;DHT22;5555;59.622;16.556;2022-12-18T14:59:29;3.10;99.90
11005;DHT22;5555;59.622;16.556;2022-12-18T15:04:32;3.10;99.90
11005;DHT22;5555;59.622;16.556;2022-12-18T15:07:14;3.10;99.90
11005;DHT22;5555;59.622;16.556;2022-12-18T15:09:42;3.10;99.90
11005;DHT22;5555;59.622;16.556;2022-12-18T15:12:25;3.10;99.90
11005;DHT22;5555;59.622;16.556;2022-12-18T15:14:51;3.10;99.90
11005;DHT22;5555;59.622;16.556;2022-12-18T15:17:19;3.00;99.90
11005;DHT22;5555;59.622;16.556;2022-12-18T15:19:48;3.10;99.90
11005;DHT22;5555;59.622;16.556;2022-12-18T15:22:26;3.00;99.90
11005;DHT22;5555;59.622;16.556;2022-12-18T15:24:54;3.00;99.90
11005;DHT22;5555;59.622;16.556;2022-12-18T15:27:31;2.90;99.90
11005;DHT22;5555;59.622;16.556;2022-12-18T15:32:34;2.90;99.90
11005;DHT22;5555;59.622;16.556;2022-12-18T15:37:35;3.00;99.90
11005;DHT22;5555;59.622;16.556;2022-12-18T15:40:00;3.00;99.90
11005;DHT22;5555;59.622;16.556;2022-12-18T15:42:28;2.90;99.90
11005;DHT22;5555;59.622;16.556;2022-12-18T15:45:13;2.90;99.90
11005;DHT22;5555;59.622;16.556;2022-12-18T15:47:39;2.90;99.90
11005;DHT22;5555;59.622;16.556;2022-12-18T15:50:07;2.90;99.90
11005;DHT22;5555;59.622;16.556;2022-12-18T15:52:41;2.90;99.90
11005;DHT22;5555;59.622;16.556;2022-12-18T15:55:16;2.90;99.90
11005;DHT22;5555;59.622;16.556;2022-12-18T15:58:00;2.90;99.90
11005;DHT22;5555;59.622;16.556;2022-12-18T16:00:26;2.90;99.90
11005;DHT22;5555;59.622;16.556;2022-12-18T16:02:52;2.90;99.90
11005;DHT22;5555;59.622;16.556;2022-12-18T16:05:20;2.90;99.90
11005;DHT22;5555;59.622;16.556;2022-12-18T16:07:47;2.90;99.90
11005;DHT22;5555;59.622;16.556;2022-12-18T16:10:13;2.80;99.90
11005;DHT22;5555;59.622;16.556;2022-12-18T16:12:39;2.80;99.90
11005;DHT22;5555;59.622;16.556;2022-12-18T16:15:05;2.80;99.90
11005;DHT22;5555;59.622;16.556;2022-12-18T16:17:31;2.80;99.90
11005;DHT22;5555;59.622;16.556;2022-12-18T16:19:57;2.80;99.90
11005;DHT22;5555;59.622;16.556;2022-12-18T16:22:26;2.70;99.90
11005;DHT22;5555;59.622;16.556;2022-12-18T16:24:53;2.60;99.90
11005;DHT22;5555;59.622;16.556;2022-12-18T16:27:19;2.50;99.90
11005;DHT22;5555;59.622;16.556;2022-12-18T16:29:44;2.50;99.90
11005;DHT22;5555;59.622;16.556;2022-12-18T16:32:16;2.40;99.90
11005;DHT22;5555;59.622;16.556;2022-12-18T16:34:42;2.40;99.90
11005;DHT22;5555;59.622;16.556;2022-12-18T16:37:10;2.30;99.90
11005;DHT22;5555;59.622;16.556;2022-12-18T16:39:37;2.30;99.90
11005;DHT22;5555;59.622;16.556;2022-12-18T16:44:37;2.30;99.90
11005;DHT22;5555;59.622;16.556;2022-12-18T16:47:03;2.20;99.90
11005;DHT22;5555;59.622;16.556;2022-12-18T16:49:29;2.20;99.90
11005;DHT22;5555;59.622;16.556;2022-12-18T16:51:55;2.10;99.90
11005;DHT22;5555;59.622;16.556;2022-12-18T16:54:21;2.20;99.90
11005;DHT22;5555;59.622;16.556;2022-12-18T16:56:46;2.30;99.90
11005;DHT22;5555;59.622;16.556;2022-12-18T16:59:14;2.30;99.90
11005;DHT22;5555;59.622;16.556;2022-12-18T17:01:40;2.30;99.90
11005;DHT22;5555;59.622;16.556;2022-12-18T17:04:06;2.10;99.90
11005;DHT22;5555;59.622;16.556;2022-12-18T17:06:35;2.10;99.90
11005;DHT22;5555;59.622;16.556;2022-12-18T17:09:05;2.10;99.90
11005;DHT22;5555;59.622;16.556;2022-12-18T17:11:33;2.00;99.90
11005;DHT22;5555;59.622;16.556;2022-12-18T17:13:59;1.90;99.90
11005;DHT22;5555;59.622;16.556;2022-12-18T17:16:25;1.90;99.90
11005;DHT22;5555;59.622;16.556;2022-12-18T17:18:54;1.90;99.90
11005;DHT22;5555;59.622;16.556;2022-12-18T17:21:19;1.80;99.90
11005;DHT22;5555;59.622;16.556;2022-12-18T17:23:45;1.90;99.90
11005;DHT22;5555;59.622;16.556;2022-12-18T17:26:12;1.90;99.90
11005;DHT22;5555;59.622;16.556;2022-12-18T17:28:39;1.90;99.90
11005;DHT22;5555;59.622;16.556;2022-12-18T17:31:12;1.90;99.90
11005;DHT22;5555;59.622;16.556;2022-12-18T17:33:39;1.90;99.90
11005;DHT22;5555;59.622;16.556;2022-12-18T17:36:05;2.00;99.90
11005;DHT22;5555;59.622;16.556;2022-12-18T17:38:30;2.00;99.90
11005;DHT22;5555;59.622;16.556;2022-12-18T17:41:03;2.00;99.90
11005;DHT22;5555;59.622;16.556;2022-12-18T17:43:30;2.00;99.90
11005;DHT22;5555;59.622;16.556;2022-12-18T17:45:56;2.00;99.90
11005;DHT22;5555;59.622;16.556;2022-12-18T17:48:25;1.90;99.90
11005;DHT22;5555;59.622;16.556;2022-12-18T17:50:51;1.80;99.90
11005;DHT22;5555;59.622;16.556;2022-12-18T17:53:16;1.80;99.90